CST,Max TemperatureF,Mean TemperatureF,Min TemperatureF,Max Dew PointF,MeanDew PointF,Min DewpointF,Max Humidity, Mean Humidity, Min Humidity, Max Sea Level PressureIn, Mean Sea Level PressureIn, Min Sea Level PressureIn, Max VisibilityMiles, Mean VisibilityMiles, Min VisibilityMiles, Max Wind SpeedMPH, Mean Wind SpeedMPH, Max Gust SpeedMPH,PrecipitationIn, CloudCover, Events, WindDirDegrees
2013-12-1,79,66,54,63,59,52,93,79,52,30.20,30.11,30.00,10,8,0,14,3,20,0.00,2,Fog,174
2013-12-2,80,68,55,64,61,53,93,78,49,29.99,29.86,29.75,10,8,0,9,3,,0.08,0,Fog,177
2013-12-3,83,70,58,66,63,56,93,79,49,29.78,29.72,29.65,10,7,0,13,6,,0.00,1,Fog,167
2013-12-4,84,75,66,70,67,63,92,81,58,29.81,29.74,29.69,10,5,0,13,7,18,0.00,5,Fog,164
2013-12-5,79,64,48,70,65,45,91,82,67,29.98,29.83,29.76,10,5,0,18,9,24,0.00,8,Fog,130
2013-12-6,50,47,44,45,38,33,90,71,57,30.37,30.17,29.99,10,8,2,20,14,26,0.00,8,,347
2013-12-7,46,42,38,33,30,29,74,65,59,30.44,30.35,30.28,10,10,10,16,12,21,0.00,8,,354
2013-12-8,49,42,36,46,39,31,91,84,74,30.27,30.14,30.05,10,7,2,10,6,,0.00,8,,351
2013-12-9,56,52,48,52,49,46,92,90,84,30.26,30.09,30.01,10,5,2,17,6,22,0.06,8,Rain,347
2013-12-10,52,47,42,46,37,32,92,69,47,30.52,30.40,30.26,10,9,4,21,11,26,0.02,7,,2
2013-12-11,52,50,48,47,40,33,90,70,51,30.50,30.38,30.30,10,8,3,13,6,18,0.01,8,,346
2013-12-12,59,54,50,47,41,35,90,61,41,30.54,30.45,30.34,10,10,4,14,7,20,0.02,8,Rain,360
2013-12-13,73,63,53,63,51,41,89,67,55,30.33,30.05,29.85,10,10,1,16,3,21,0.14,6,Rain,124
2013-12-14,76,64,50,62,48,33,92,61,24,30.33,30.04,29.86,10,8,0,21,7,28,0.00,3,Fog,351
2013-12-15,65,52,40,40,33,23,85,57,21,30.44,30.37,30.31,10,10,10,13,5,16,0.00,0,,350
2013-12-16,69,52,36,46,37,31,88,63,24,30.37,30.30,30.23,10,10,7,7,1,,0.04,0,,125
2013-12-17,75,58,41,55,47,39,93,73,37,30.33,30.27,30.21,10,8,0,8,2,,0.00,1,Fog,129
2013-12-18,79,62,46,58,52,43,92,71,38,30.29,30.20,30.08,10,9,0,14,4,18,0.00,3,Fog,143
2013-12-19,83,70,57,65,61,55,92,74,44,30.07,29.92,29.83,10,9,0,25,10,37,0.00,1,Fog,161
2013-12-20,85,76,68,68,67,65,88,76,52,29.86,29.77,29.68,10,9,7,25,14,34,0.00,3,,161
2013-12-21,,,,,,,,,,,,,,,,,,,,,,
2013-12-22,,,,,,,,,,,,,,,,,,,,,,
2013-12-23,,,,,,,,,,,,,,,,,,,,,,
2013-12-24,67,60,54,47,44,36,76,56,33,30.42,30.34,30.26,10,10,10,10,6,21,0.00,4,,109
2013-12-25,73,60,47,59,52,44,88,73,49,30.29,30.23,30.19,10,10,10,8,2,,0.00,5,Rain,31
2013-12-26,61,57,53,59,54,50,92,91,89,30.36,30.31,30.25,10,5,2,10,6,,0.65,8,Rain,355
2013-12-27,59,56,52,52,50,49,92,85,73,30.39,30.33,30.29,10,7,3,10,7,,0.06,8,Rain,359
2013-12-28,63,58,52,51,48,42,89,74,47,30.32,30.18,30.06,10,8,2,8,5,,0.00,7,Rain,357
2013-12-29,68,59,50,58,54,48,92,81,67,30.11,30.04,29.98,10,7,0,9,2,,0.00,7,Fog-Rain,48
2013-12-30,62,54,45,55,45,42,91,87,77,30.40,30.26,30.07,10,8,4,17,10,28,1.30,8,Rain,339
2013-12-31,46,44,42,44,42,40,91,89,88,30.46,30.38,30.29,10,9,7,13,7,,0.42,8,Rain,349